OINN  Noshahr  Airport

Iran

Add Bookmark
ICAO OINN
IATA NSH
Type Airport
Status Operational
Latitude
36° 39' 47" N
36.663300
Longitude
51° 27' 52" E
51.464699
Local (DST + 5) UTC (GMT + 4)
Sep 5, 2015 10:12 Sep 5, 2015 05:42
Sunrise-Sunset Local UTC
Begin Civil Twilight 06:10 01:40
Sunrise 06:37 02:07
Sunset 07:28 14:58
End Civil Twilight 07:54 15:24
VFR
VFR
MVFR
MVFR
IFR
IFR
LIFR
LIFR
Unknown
Unavailable

Current Weather

METAR Observed VFR
OINN 050500Z 00000KT CAVOK 26/17 Q1014 Sat, Sep 5, 2015 @ 05:00 UTC
(42 Minutes ago)
Visual Flight Rules
Wind Visibility Conditions
Calm 10 km or more
  • No significant weather
Temperatures Readings Precipitation
Current Temp
26°C
79°F
Dewpoint
17°C
63°F
Humidity 58%
Altimeter 29.94" Hg
Sea Level Pressure 1,014 mb
None Recorded

Additional weather within a 92.6km radius of OINN

Map ICAO Location
OINR 75km W/NW (292°)
VFR
VFR
MVFR
MVFR
IFR
IFR
LIFR
LIFR
Unknown
Unavailable
-
-

CheckWX.com is intended as a tool to help pilots better visualize weather data. It is not intended as a substitute for an official weather briefing obtained from a Flight Service Station. CheckWX.com does not meet the FAA requirements for an official pre-flight weather briefing. Therefore, it's important that pilots still call and obtain an official FSS pre-flight weather briefing.

© 2007-2015 CheckWX.com
05:42:34 UTC